createdAt,value
2017-12-02T00:00:14.984Z,0
2017-12-02T00:01:16.383Z,0
2017-12-02T00:02:17.788Z,0
2017-12-02T00:03:19.180Z,0
2017-12-02T00:04:20.569Z,0
2017-12-02T00:05:21.967Z,0
2017-12-02T00:06:23.360Z,0
2017-12-02T00:07:24.748Z,0
2017-12-02T00:08:26.137Z,0
2017-12-02T00:09:27.546Z,0
2017-12-02T00:10:28.946Z,0
2017-12-02T00:11:30.352Z,0
2017-12-02T00:12:31.743Z,0
2017-12-02T00:13:33.141Z,0
2017-12-02T00:14:34.537Z,0
2017-12-02T00:15:35.945Z,0
2017-12-02T00:16:37.344Z,0
2017-12-02T00:17:38.735Z,0
2017-12-02T00:18:40.152Z,0
2017-12-02T00:19:41.549Z,0
2017-12-02T00:20:42.963Z,0
2017-12-02T00:21:44.361Z,0
2017-12-02T00:22:45.755Z,0
2017-12-02T00:23:47.146Z,0
2017-12-02T00:24:49.178Z,0
2017-12-02T00:25:50.577Z,0
2017-12-02T00:26:51.966Z,0
2017-12-02T00:27:53.351Z,0
2017-12-02T00:28:54.736Z,0
2017-12-02T00:29:56.142Z,0
2017-12-02T00:30:57.537Z,0
2017-12-02T00:31:58.930Z,0
2017-12-02T00:33:00.331Z,0
2017-12-02T00:34:01.731Z,0
2017-12-02T00:35:03.134Z,0
2017-12-02T00:36:04.548Z,0
2017-12-02T00:37:05.926Z,0
2017-12-02T00:38:07.358Z,0
2017-12-02T00:39:08.754Z,0
2017-12-02T00:40:10.145Z,0
2017-12-02T00:41:11.538Z,0
2017-12-02T00:42:12.931Z,0
2017-12-02T00:43:14.321Z,0
2017-12-02T00:44:15.712Z,0
2017-12-02T00:45:17.109Z,0
2017-12-02T00:46:18.506Z,0
2017-12-02T00:47:19.899Z,0
2017-12-02T00:48:21.289Z,0
2017-12-02T00:49:22.693Z,0
2017-12-02T00:50:24.089Z,0
2017-12-02T00:51:25.485Z,0
2017-12-02T00:52:26.881Z,0
2017-12-02T00:53:28.284Z,0
2017-12-02T00:54:29.684Z,0
2017-12-02T00:55:31.074Z,0
2017-12-02T00:56:32.476Z,0
2017-12-02T00:57:33.863Z,0
2017-12-02T00:58:35.250Z,0
2017-12-02T00:59:36.639Z,0
2017-12-02T01:00:38.025Z,0
2017-12-02T01:01:39.416Z,0
2017-12-02T01:02:40.816Z,0
2017-12-02T01:03:42.216Z,0
2017-12-02T01:04:43.617Z,0
2017-12-02T01:05:45.020Z,0
2017-12-02T01:06:46.422Z,0
2017-12-02T01:07:47.823Z,0
2017-12-02T01:08:49.218Z,0
2017-12-02T01:09:50.610Z,0
2017-12-02T01:10:52.004Z,0
2017-12-02T01:11:53.401Z,0
2017-12-02T01:12:54.792Z,0
2017-12-02T01:13:56.185Z,0
2017-12-02T01:14:57.575Z,0
2017-12-02T01:15:58.971Z,0
2017-12-02T01:17:00.377Z,0
2017-12-02T01:18:01.763Z,0
2017-12-02T01:19:03.162Z,0
2017-12-02T01:20:04.612Z,0
2017-12-02T01:21:06.002Z,0
2017-12-02T01:22:07.404Z,0
2017-12-02T01:23:08.793Z,0
2017-12-02T01:24:10.187Z,0
2017-12-02T01:25:11.597Z,0
2017-12-02T01:26:12.998Z,0
2017-12-02T01:27:14.396Z,0
2017-12-02T01:28:15.791Z,0
2017-12-02T01:29:17.177Z,0
2017-12-02T01:30:18.583Z,0
2017-12-02T01:31:19.988Z,0
2017-12-02T01:32:21.387Z,0
2017-12-02T01:33:22.782Z,0
2017-12-02T01:34:24.176Z,0
2017-12-02T01:35:25.563Z,0
2017-12-02T01:36:26.964Z,0
2017-12-02T01:37:28.365Z,0
2017-12-02T01:38:29.777Z,0
2017-12-02T01:39:31.171Z,0
2017-12-02T01:40:32.573Z,0
2017-12-02T01:41:33.968Z,0
2017-12-02T01:42:35.362Z,0
2017-12-02T01:43:36.757Z,0
2017-12-02T01:44:38.163Z,0
2017-12-02T01:45:39.572Z,0
2017-12-02T01:46:40.991Z,0
2017-12-02T01:47:42.370Z,0
2017-12-02T01:48:43.766Z,0
2017-12-02T01:49:45.155Z,0
2017-12-02T01:50:46.552Z,0
2017-12-02T01:51:47.950Z,0
2017-12-02T01:52:49.348Z,0
2017-12-02T01:53:50.740Z,0
2017-12-02T01:54:52.134Z,0
2017-12-02T01:55:53.533Z,0
2017-12-02T01:56:54.926Z,0
2017-12-02T01:57:56.317Z,0
2017-12-02T01:58:57.708Z,0
2017-12-02T01:59:59.103Z,0
2017-12-02T02:01:00.508Z,0
2017-12-02T02:02:01.900Z,0
2017-12-02T02:03:03.324Z,0
2017-12-02T02:04:04.712Z,0
2017-12-02T02:05:06.106Z,0
2017-12-02T02:06:07.512Z,0
2017-12-02T02:07:08.907Z,0
2017-12-02T02:08:10.310Z,0
2017-12-02T02:09:11.716Z,0
2017-12-02T02:10:13.102Z,0
2017-12-02T02:11:14.510Z,0
2017-12-02T02:12:15.927Z,0
2017-12-02T02:13:17.319Z,0
2017-12-02T02:14:18.717Z,0
2017-12-02T02:15:20.108Z,0
2017-12-02T02:16:21.503Z,0
2017-12-02T02:17:22.890Z,0
2017-12-02T02:18:24.276Z,0
2017-12-02T02:19:25.671Z,0
2017-12-02T02:20:27.065Z,0
2017-12-02T02:21:28.459Z,0
2017-12-02T02:22:29.865Z,0
2017-12-02T02:23:31.267Z,0
2017-12-02T02:24:32.662Z,0
2017-12-02T02:25:34.053Z,0
2017-12-02T02:26:35.458Z,0
2017-12-02T02:27:36.836Z,0
2017-12-02T02:28:38.230Z,0
2017-12-02T02:29:39.620Z,0
2017-12-02T02:30:41.019Z,0
2017-12-02T02:31:42.413Z,0
2017-12-02T02:32:43.797Z,0
2017-12-02T02:33:45.197Z,0
2017-12-02T02:34:46.578Z,0
2017-12-02T02:35:47.975Z,0
2017-12-02T02:36:49.368Z,0
2017-12-02T02:37:50.755Z,0
2017-12-02T02:38:52.142Z,0
2017-12-02T02:39:53.533Z,0
2017-12-02T02:40:54.927Z,0
2017-12-02T02:41:56.318Z,0
2017-12-02T02:42:57.709Z,0
2017-12-02T02:43:59.118Z,0
2017-12-02T02:45:00.504Z,0
2017-12-02T02:46:01.898Z,0
2017-12-02T02:47:03.290Z,0
2017-12-02T02:48:04.699Z,0
2017-12-02T02:49:06.086Z,0
2017-12-02T02:50:07.474Z,0
2017-12-02T02:51:08.882Z,0
2017-12-02T02:52:10.269Z,0
2017-12-02T02:53:11.656Z,0
2017-12-02T02:54:13.054Z,0
2017-12-02T02:55:14.455Z,0
2017-12-02T02:56:15.849Z,0
2017-12-02T02:57:17.233Z,0
2017-12-02T02:58:18.624Z,0
2017-12-02T02:59:20.029Z,0
2017-12-02T03:00:21.429Z,0
2017-12-02T03:01:23.127Z,0
2017-12-02T03:02:24.520Z,0
2017-12-02T03:03:25.914Z,0
2017-12-02T03:04:27.318Z,0
2017-12-02T03:05:28.715Z,0
2017-12-02T03:06:30.104Z,0
2017-12-02T03:07:31.503Z,0
2017-12-02T03:08:32.899Z,0
2017-12-02T03:09:34.286Z,0
2017-12-02T03:10:35.687Z,0
2017-12-02T03:11:37.080Z,0
2017-12-02T03:12:38.483Z,0
2017-12-02T03:13:39.890Z,0
2017-12-02T03:14:41.286Z,0
2017-12-02T03:15:42.700Z,0
2017-12-02T03:16:44.077Z,0
2017-12-02T03:17:45.467Z,0
2017-12-02T03:18:46.859Z,0
2017-12-02T03:19:48.371Z,0
2017-12-02T03:20:49.763Z,0
2017-12-02T03:21:51.151Z,0
2017-12-02T03:22:52.540Z,0
2017-12-02T03:23:53.932Z,0
2017-12-02T03:24:55.317Z,0
2017-12-02T03:25:56.710Z,0
2017-12-02T03:26:58.102Z,0
2017-12-02T03:27:59.492Z,0
2017-12-02T03:29:00.879Z,0
2017-12-02T03:30:02.266Z,0
2017-12-02T03:31:03.666Z,0
2017-12-02T03:32:05.057Z,0
2017-12-02T03:33:06.450Z,0
2017-12-02T03:34:07.842Z,0
2017-12-02T03:35:09.230Z,0
2017-12-02T03:36:10.617Z,0
2017-12-02T03:37:12.005Z,0
2017-12-02T03:38:13.453Z,0
2017-12-02T03:39:14.847Z,0
2017-12-02T03:40:16.241Z,0
2017-12-02T03:41:17.650Z,0
2017-12-02T03:42:19.049Z,0
2017-12-02T03:43:20.432Z,0
2017-12-02T03:44:21.819Z,0
2017-12-02T03:45:23.210Z,0
2017-12-02T03:46:24.620Z,0
2017-12-02T03:47:26.009Z,0
2017-12-02T03:48:27.406Z,0
2017-12-02T03:49:28.797Z,0
2017-12-02T03:50:30.192Z,0
2017-12-02T03:51:31.582Z,0
2017-12-02T03:52:32.971Z,0
2017-12-02T03:53:34.364Z,0
2017-12-02T03:54:35.754Z,0
2017-12-02T03:55:37.148Z,0
2017-12-02T03:56:38.540Z,0
2017-12-02T03:57:40.318Z,0
2017-12-02T03:58:41.706Z,0
2017-12-02T03:59:43.107Z,0
2017-12-02T04:00:44.498Z,0
2017-12-02T04:01:45.896Z,0
2017-12-02T04:02:47.290Z,0
2017-12-02T04:03:48.678Z,0
2017-12-02T04:04:50.064Z,0
2017-12-02T04:05:51.458Z,0
2017-12-02T04:06:52.849Z,0
2017-12-02T04:07:54.244Z,0
2017-12-02T04:08:55.631Z,0
2017-12-02T04:09:57.042Z,0
2017-12-02T04:10:58.434Z,0
2017-12-02T04:11:59.819Z,0
2017-12-02T04:13:01.209Z,0
2017-12-02T04:14:02.602Z,0
2017-12-02T04:15:03.989Z,0
2017-12-02T04:16:05.388Z,0
2017-12-02T04:17:06.776Z,0
2017-12-02T04:18:08.166Z,0
2017-12-02T04:19:09.556Z,0
2017-12-02T04:20:10.946Z,0
2017-12-02T04:21:12.339Z,0
2017-12-02T04:22:13.727Z,0
2017-12-02T04:23:15.117Z,0
2017-12-02T04:24:16.507Z,0
2017-12-02T04:25:17.900Z,0
2017-12-02T04:26:19.292Z,0
2017-12-02T04:27:20.689Z,0
2017-12-02T04:28:22.089Z,0
2017-12-02T04:29:23.479Z,0
2017-12-02T04:30:24.891Z,0
2017-12-02T04:31:26.265Z,0
2017-12-02T04:32:27.650Z,0
2017-12-02T04:33:29.040Z,0
2017-12-02T04:34:30.429Z,0
2017-12-02T04:35:31.819Z,0
2017-12-02T04:36:33.203Z,0
2017-12-02T04:37:34.599Z,0
2017-12-02T04:38:35.991Z,0
2017-12-02T04:39:37.381Z,0
2017-12-02T04:40:38.778Z,0
2017-12-02T04:41:40.167Z,0
2017-12-02T04:42:41.557Z,0
2017-12-02T04:43:42.950Z,0
2017-12-02T04:44:44.341Z,0
2017-12-02T04:45:45.737Z,0
2017-12-02T04:46:47.127Z,0
2017-12-02T04:47:48.519Z,0
2017-12-02T04:48:49.913Z,0
2017-12-02T04:49:51.304Z,0
2017-12-02T04:50:52.708Z,0
2017-12-02T04:51:54.093Z,0
2017-12-02T04:52:55.490Z,0
2017-12-02T04:53:56.882Z,0
2017-12-02T04:54:58.274Z,0
2017-12-02T04:55:59.666Z,0
2017-12-02T04:57:01.067Z,0
2017-12-02T04:58:02.470Z,0
2017-12-02T04:59:03.860Z,0
2017-12-02T05:00:05.253Z,0
2017-12-02T05:01:06.651Z,0
2017-12-02T05:02:08.047Z,0
2017-12-02T05:03:09.491Z,0
2017-12-02T05:04:11.345Z,0
2017-12-02T05:05:12.732Z,0
2017-12-02T05:06:14.130Z,0
2017-12-02T05:07:15.531Z,0
2017-12-02T05:08:16.954Z,0
2017-12-02T05:09:18.341Z,0
2017-12-02T05:10:19.728Z,0
2017-12-02T05:11:21.118Z,0
2017-12-02T05:12:22.575Z,0
2017-12-02T05:13:23.964Z,0
2017-12-02T05:14:25.376Z,0
2017-12-02T05:15:26.767Z,0
2017-12-02T05:16:28.497Z,0
2017-12-02T05:17:29.991Z,0
2017-12-02T05:18:31.385Z,0
2017-12-02T05:19:32.835Z,0
2017-12-02T05:20:34.736Z,0
2017-12-02T05:21:36.122Z,0
2017-12-02T05:22:37.592Z,0
2017-12-02T05:23:38.983Z,0
2017-12-02T05:24:40.383Z,0
2017-12-02T05:25:41.765Z,0
2017-12-02T05:26:43.712Z,0
2017-12-02T05:27:45.028Z,0
2017-12-02T05:28:46.421Z,0
2017-12-02T05:29:47.807Z,0
2017-12-02T05:30:49.210Z,0
2017-12-02T05:31:50.865Z,0
2017-12-02T05:32:52.260Z,0
2017-12-02T05:33:53.652Z,0
2017-12-02T05:34:55.040Z,0
2017-12-02T05:35:56.434Z,0
2017-12-02T05:36:57.832Z,0
2017-12-02T05:37:59.234Z,0
2017-12-02T05:39:00.629Z,0
2017-12-02T05:40:02.021Z,0
2017-12-02T05:41:03.490Z,0
2017-12-02T05:42:04.880Z,0
2017-12-02T05:43:06.278Z,0
2017-12-02T05:44:08.219Z,0
2017-12-02T05:45:09.606Z,0
2017-12-02T05:46:11.024Z,0
2017-12-02T05:47:12.410Z,0
2017-12-02T05:48:13.799Z,0
2017-12-02T05:49:15.187Z,0
2017-12-02T05:50:16.576Z,0
2017-12-02T05:51:17.964Z,0
2017-12-02T05:52:20.018Z,0
2017-12-02T05:53:21.406Z,0
2017-12-02T05:54:22.844Z,0
2017-12-02T05:55:24.232Z,0
2017-12-02T05:56:25.626Z,0
2017-12-02T05:57:27.031Z,0
2017-12-02T05:58:28.426Z,0
2017-12-02T05:59:29.814Z,0
2017-12-02T06:00:31.961Z,0
2017-12-02T06:01:33.358Z,0
2017-12-02T06:02:34.755Z,0
2017-12-02T06:03:36.146Z,0
2017-12-02T06:04:37.539Z,0
2017-12-02T06:05:38.930Z,0
2017-12-02T06:06:40.322Z,0
2017-12-02T06:07:41.710Z,0
2017-12-02T06:08:43.110Z,0
2017-12-02T06:09:44.499Z,0
2017-12-02T06:10:45.892Z,0
2017-12-02T06:11:47.280Z,0
2017-12-02T06:12:48.666Z,0
2017-12-02T06:13:50.057Z,0
2017-12-02T06:14:51.444Z,0
2017-12-02T06:15:52.847Z,0
2017-12-02T06:16:54.240Z,0
2017-12-02T06:17:55.625Z,0
2017-12-02T06:18:57.016Z,0
2017-12-02T06:19:58.407Z,0
2017-12-02T06:20:59.817Z,0
2017-12-02T06:22:01.214Z,0
2017-12-02T06:23:02.606Z,0
2017-12-02T06:24:03.992Z,0
2017-12-02T06:25:05.386Z,0
2017-12-02T06:26:06.788Z,0
2017-12-02T06:27:08.177Z,0
2017-12-02T06:28:09.571Z,0
2017-12-02T06:29:10.963Z,0
2017-12-02T06:30:12.364Z,0
2017-12-02T06:31:13.774Z,0
2017-12-02T06:32:15.173Z,0
2017-12-02T06:33:16.571Z,0
2017-12-02T06:34:17.957Z,0
2017-12-02T06:35:19.344Z,0
2017-12-02T06:36:20.740Z,0
2017-12-02T06:37:22.137Z,0
2017-12-02T06:38:23.520Z,0
2017-12-02T06:39:24.922Z,0
2017-12-02T06:40:26.382Z,0
2017-12-02T06:41:27.786Z,0
2017-12-02T06:42:29.198Z,0
2017-12-02T06:43:30.594Z,0
2017-12-02T06:44:31.986Z,0
2017-12-02T06:45:33.380Z,0
2017-12-02T06:46:34.777Z,0
2017-12-02T06:47:36.190Z,0
2017-12-02T06:48:37.579Z,0
2017-12-02T06:49:38.988Z,0
2017-12-02T06:50:40.379Z,0
2017-12-02T06:51:41.777Z,0
2017-12-02T06:52:43.179Z,0
2017-12-02T06:53:44.589Z,0
2017-12-02T06:54:45.980Z,0
2017-12-02T06:55:47.372Z,0
2017-12-02T06:56:48.769Z,0
2017-12-02T06:57:50.151Z,0
2017-12-02T06:58:51.541Z,0
2017-12-02T06:59:52.929Z,4
2017-12-02T07:00:54.335Z,4
2017-12-02T07:01:55.743Z,0
2017-12-02T07:02:57.131Z,0
2017-12-02T07:03:58.519Z,0
2017-12-02T07:04:59.907Z,4
2017-12-02T07:06:01.312Z,4
2017-12-02T07:07:02.702Z,4
2017-12-02T07:08:04.092Z,4
2017-12-02T07:09:05.486Z,4
2017-12-02T07:10:06.876Z,4
2017-12-02T07:11:08.273Z,8
2017-12-02T07:12:09.654Z,4
2017-12-02T07:13:11.047Z,8
2017-12-02T07:14:12.439Z,8
2017-12-02T07:15:13.829Z,8
2017-12-02T07:16:15.222Z,8
2017-12-02T07:17:16.612Z,8
2017-12-02T07:18:18.003Z,8
2017-12-02T07:19:19.415Z,12
2017-12-02T07:20:20.812Z,8
2017-12-02T07:21:22.821Z,12
2017-12-02T07:22:24.235Z,12
2017-12-02T07:23:25.690Z,12
2017-12-02T07:24:27.085Z,12
2017-12-02T07:25:28.489Z,16
2017-12-02T07:26:29.875Z,16
2017-12-02T07:27:31.281Z,16
2017-12-02T07:28:32.695Z,16
2017-12-02T07:29:34.085Z,20
2017-12-02T07:30:35.487Z,20
2017-12-02T07:31:37.544Z,20
2017-12-02T07:32:38.936Z,20
2017-12-02T07:33:40.335Z,24
2017-12-02T07:34:41.737Z,24
2017-12-02T07:35:43.132Z,28
2017-12-02T07:36:44.521Z,24
2017-12-02T07:37:45.912Z,28
2017-12-02T07:38:47.330Z,28
2017-12-02T07:39:48.738Z,32
2017-12-02T07:40:50.139Z,32
2017-12-02T07:41:51.539Z,36
2017-12-02T07:42:52.964Z,32
2017-12-02T07:43:54.334Z,40
2017-12-02T07:44:55.739Z,36
2017-12-02T07:45:57.123Z,40
2017-12-02T07:46:58.509Z,44
2017-12-02T07:47:59.902Z,44
2017-12-02T07:49:01.291Z,44
2017-12-02T07:50:02.694Z,48
2017-12-02T07:51:04.089Z,48
2017-12-02T07:52:05.494Z,48
2017-12-02T07:53:06.879Z,52
2017-12-02T07:54:08.264Z,52
2017-12-02T07:55:09.678Z,52
2017-12-02T07:56:11.070Z,60
2017-12-02T07:57:12.462Z,60
2017-12-02T07:58:13.857Z,60
2017-12-02T07:59:15.411Z,64
2017-12-02T08:00:16.801Z,68
2017-12-02T08:01:18.198Z,72
2017-12-02T08:02:19.585Z,76
2017-12-02T08:03:20.986Z,80
2017-12-02T08:04:22.381Z,80
2017-12-02T08:05:23.780Z,80
2017-12-02T08:06:25.179Z,84
2017-12-02T08:07:26.566Z,84
2017-12-02T08:08:27.955Z,88
2017-12-02T08:09:29.376Z,96
2017-12-02T08:10:30.752Z,96
2017-12-02T08:11:32.143Z,96
2017-12-02T08:12:33.538Z,96
2017-12-02T08:13:34.935Z,100
2017-12-02T08:14:36.327Z,96
2017-12-02T08:15:37.715Z,92
2017-12-02T08:16:39.104Z,92
2017-12-02T08:17:40.493Z,92
2017-12-02T08:18:41.884Z,96
2017-12-02T08:19:43.276Z,100
2017-12-02T08:20:44.672Z,104
2017-12-02T08:21:46.067Z,108
2017-12-02T08:22:47.467Z,112
2017-12-02T08:23:48.858Z,112
2017-12-02T08:24:50.251Z,116
2017-12-02T08:25:51.647Z,116
2017-12-02T08:26:53.045Z,116
2017-12-02T08:27:54.437Z,124
2017-12-02T08:28:55.829Z,128
2017-12-02T08:29:57.223Z,132
2017-12-02T08:30:58.630Z,128
2017-12-02T08:32:00.027Z,128
2017-12-02T08:33:01.421Z,132
2017-12-02T08:34:02.823Z,140
2017-12-02T08:35:04.208Z,144
2017-12-02T08:36:05.603Z,148
2017-12-02T08:37:06.991Z,148
2017-12-02T08:38:08.383Z,148
2017-12-02T08:39:09.777Z,144
2017-12-02T08:40:11.178Z,140
2017-12-02T08:41:12.570Z,140
2017-12-02T08:42:13.972Z,136
2017-12-02T08:43:15.381Z,140
2017-12-02T08:44:16.771Z,144
2017-12-02T08:45:18.167Z,148
2017-12-02T08:46:19.562Z,156
2017-12-02T08:47:20.958Z,160
2017-12-02T08:48:22.353Z,160
2017-12-02T08:49:23.753Z,164
2017-12-02T08:50:25.147Z,176
2017-12-02T08:51:26.536Z,176
2017-12-02T08:52:27.931Z,180
2017-12-02T08:53:29.337Z,184
2017-12-02T08:54:30.725Z,192
2017-12-02T08:55:32.120Z,208
2017-12-02T08:56:33.525Z,204
2017-12-02T08:57:34.917Z,212
2017-12-02T08:58:37.731Z,204
2017-12-02T08:59:39.132Z,208
2017-12-02T09:00:40.524Z,200
2017-12-02T09:01:41.925Z,188
2017-12-02T09:02:43.316Z,184
2017-12-02T09:03:44.715Z,180
2017-12-02T09:04:46.113Z,188
2017-12-02T09:05:47.503Z,184
2017-12-02T09:06:48.896Z,184
2017-12-02T09:07:50.289Z,180
2017-12-02T09:08:51.686Z,180
2017-12-02T09:09:53.092Z,184
2017-12-02T09:10:54.491Z,188
2017-12-02T09:11:55.892Z,192
2017-12-02T09:12:57.284Z,188
2017-12-02T09:13:58.680Z,176
2017-12-02T09:15:00.087Z,164
2017-12-02T09:16:01.479Z,160
2017-12-02T09:17:02.872Z,168
2017-12-02T09:18:04.273Z,172
2017-12-02T09:19:05.670Z,188
2017-12-02T09:20:07.070Z,204
2017-12-02T09:21:08.466Z,220
2017-12-02T09:22:09.868Z,236
2017-12-02T09:23:11.261Z,228
2017-12-02T09:24:12.656Z,232
2017-12-02T09:25:14.055Z,232
2017-12-02T09:26:15.445Z,228
2017-12-02T09:27:16.855Z,240
2017-12-02T09:28:18.247Z,252
2017-12-02T09:29:19.644Z,272
2017-12-02T09:30:21.056Z,280
2017-12-02T09:31:22.451Z,276
2017-12-02T09:32:23.867Z,272
2017-12-02T09:33:25.263Z,268
2017-12-02T09:34:26.651Z,276
2017-12-02T09:35:28.775Z,284
2017-12-02T09:36:30.187Z,284
2017-12-02T09:37:31.583Z,276
2017-12-02T09:38:32.982Z,284
2017-12-02T09:39:34.381Z,296
2017-12-02T09:40:35.795Z,304
2017-12-02T09:41:37.201Z,300
2017-12-02T09:42:38.587Z,292
2017-12-02T09:43:39.983Z,296
2017-12-02T09:44:41.380Z,308
2017-12-02T09:45:42.788Z,340
2017-12-02T09:46:44.185Z,360
2017-12-02T09:47:45.582Z,376
2017-12-02T09:48:46.975Z,364
2017-12-02T09:49:48.386Z,348
2017-12-02T09:50:49.776Z,336
2017-12-02T09:51:51.178Z,328
2017-12-02T09:52:52.569Z,324
2017-12-02T09:53:53.967Z,328
2017-12-02T09:54:55.368Z,328
2017-12-02T09:55:57.685Z,308
2017-12-02T09:56:59.110Z,296
2017-12-02T09:58:00.522Z,296
2017-12-02T09:59:01.921Z,320
2017-12-02T10:00:03.318Z,352
2017-12-02T10:01:04.809Z,360
2017-12-02T10:02:06.200Z,364
2017-12-02T10:03:07.615Z,368
2017-12-02T10:04:09.010Z,372
2017-12-02T10:05:10.465Z,376
2017-12-02T10:06:11.871Z,368
2017-12-02T10:07:13.265Z,364
2017-12-02T10:08:14.707Z,372
2017-12-02T10:09:16.097Z,376
2017-12-02T10:10:17.498Z,400
2017-12-02T10:11:18.900Z,384
2017-12-02T10:12:20.296Z,360
2017-12-02T10:13:21.690Z,368
2017-12-02T10:14:23.083Z,388
2017-12-02T10:15:24.477Z,416
2017-12-02T10:16:25.876Z,416
2017-12-02T10:17:27.267Z,412
2017-12-02T10:18:28.663Z,408
2017-12-02T10:19:30.064Z,388
2017-12-02T10:20:31.454Z,384
2017-12-02T10:21:33.043Z,372
2017-12-02T10:22:34.435Z,372
2017-12-02T10:23:35.825Z,372
2017-12-02T10:24:37.790Z,376
2017-12-02T10:25:39.189Z,404
2017-12-02T10:26:40.596Z,408
2017-12-02T10:27:42.001Z,404
2017-12-02T10:28:43.462Z,404
2017-12-02T10:29:44.857Z,416
2017-12-02T10:30:46.247Z,420
2017-12-02T10:31:47.684Z,420
2017-12-02T10:32:49.088Z,424
2017-12-02T10:33:50.485Z,420
2017-12-02T10:34:51.885Z,408
2017-12-02T10:35:53.295Z,384
2017-12-02T10:36:54.689Z,392
2017-12-02T10:37:56.086Z,404
2017-12-02T10:38:57.476Z,432
2017-12-02T10:39:58.896Z,436
2017-12-02T10:41:00.262Z,416
2017-12-02T10:42:01.671Z,412
2017-12-02T10:43:03.078Z,416
2017-12-02T10:44:04.485Z,416
2017-12-02T10:45:05.886Z,408
2017-12-02T10:46:07.301Z,408
2017-12-02T10:47:08.714Z,428
2017-12-02T10:48:10.116Z,424
2017-12-02T10:49:11.532Z,416
2017-12-02T10:50:12.933Z,428
2017-12-02T10:51:14.328Z,432
2017-12-02T10:52:15.747Z,432
2017-12-02T10:53:17.139Z,432
2017-12-02T10:54:18.538Z,432
2017-12-02T10:55:20.036Z,444
2017-12-02T10:56:21.387Z,472
2017-12-02T10:57:22.784Z,480
2017-12-02T10:58:24.192Z,468
2017-12-02T10:59:25.585Z,464
2017-12-02T11:00:26.977Z,464
2017-12-02T11:01:28.385Z,464
2017-12-02T11:02:29.773Z,480
2017-12-02T11:03:31.182Z,476
2017-12-02T11:04:32.582Z,464
2017-12-02T11:05:33.982Z,452
2017-12-02T11:06:35.384Z,436
2017-12-02T11:07:36.782Z,452
2017-12-02T11:08:38.205Z,448
2017-12-02T11:09:39.603Z,436
2017-12-02T11:10:41.015Z,428
2017-12-02T11:11:42.415Z,432
2017-12-02T11:12:43.844Z,440
2017-12-02T11:13:45.262Z,464
2017-12-02T11:14:46.653Z,464
2017-12-02T11:15:48.051Z,472
2017-12-02T11:16:49.451Z,448
2017-12-02T11:17:50.859Z,428
2017-12-02T11:18:52.254Z,416
2017-12-02T11:19:53.645Z,412
2017-12-02T11:20:55.039Z,420
2017-12-02T11:21:56.432Z,424
2017-12-02T11:22:57.828Z,420
2017-12-02T11:23:59.239Z,408
2017-12-02T11:25:00.644Z,416
2017-12-02T11:26:02.038Z,400
2017-12-02T11:27:03.447Z,396
2017-12-02T11:28:04.842Z,392
2017-12-02T11:29:06.249Z,400
2017-12-02T11:30:07.648Z,404
2017-12-02T11:31:09.045Z,384
2017-12-02T11:32:10.446Z,368
2017-12-02T11:33:11.841Z,348
2017-12-02T11:34:13.245Z,352
2017-12-02T11:35:14.632Z,368
2017-12-02T11:36:16.032Z,372
2017-12-02T11:37:17.440Z,356
2017-12-02T11:38:18.881Z,364
2017-12-02T11:39:20.287Z,384
2017-12-02T11:40:21.687Z,380
2017-12-02T11:41:23.085Z,388
2017-12-02T11:42:24.541Z,384
2017-12-02T11:43:25.898Z,384
2017-12-02T11:44:27.320Z,376
2017-12-02T11:45:28.727Z,376
2017-12-02T11:46:30.120Z,352
2017-12-02T11:47:31.512Z,356
2017-12-02T11:48:32.933Z,372
2017-12-02T11:49:34.331Z,368
2017-12-02T11:50:35.730Z,380
2017-12-02T11:51:37.123Z,372
2017-12-02T11:52:38.517Z,356
2017-12-02T11:53:39.935Z,340
2017-12-02T11:54:41.330Z,332
2017-12-02T11:55:42.724Z,352
2017-12-02T11:56:44.116Z,360
2017-12-02T11:57:45.510Z,360
2017-12-02T11:58:46.907Z,376
2017-12-02T11:59:48.310Z,372
2017-12-02T12:00:49.701Z,364
2017-12-02T12:01:51.095Z,368
2017-12-02T12:02:52.494Z,364
2017-12-02T12:03:53.892Z,368
2017-12-02T12:04:55.286Z,352
2017-12-02T12:05:56.680Z,340
2017-12-02T12:06:58.092Z,332
2017-12-02T12:07:59.494Z,328
2017-12-02T12:09:00.904Z,312
2017-12-02T12:10:02.317Z,308
2017-12-02T12:11:03.722Z,304
2017-12-02T12:12:05.107Z,296
2017-12-02T12:13:06.500Z,296
2017-12-02T12:14:08.985Z,296
2017-12-02T12:15:10.533Z,296
2017-12-02T12:16:11.940Z,280
2017-12-02T12:17:13.355Z,284
2017-12-02T12:18:14.746Z,280
2017-12-02T12:19:16.164Z,284
2017-12-02T12:20:17.583Z,288
2017-12-02T12:21:19.005Z,296
2017-12-02T12:22:20.398Z,284
2017-12-02T12:23:21.811Z,276
2017-12-02T12:24:23.209Z,268
2017-12-02T12:25:24.679Z,272
2017-12-02T12:26:26.083Z,288
2017-12-02T12:27:27.476Z,288
2017-12-02T12:28:28.919Z,300
2017-12-02T12:29:30.318Z,292
2017-12-02T12:30:31.722Z,296
2017-12-02T12:31:33.244Z,292
2017-12-02T12:32:34.575Z,284
2017-12-02T12:33:35.985Z,280
2017-12-02T12:34:37.410Z,292
2017-12-02T12:35:38.828Z,288
2017-12-02T12:36:40.246Z,280
2017-12-02T12:37:41.646Z,280
2017-12-02T12:38:43.050Z,292
2017-12-02T12:39:44.431Z,292
2017-12-02T12:40:45.829Z,288
2017-12-02T12:41:47.247Z,288
2017-12-02T12:42:48.702Z,288
2017-12-02T12:43:50.093Z,284
2017-12-02T12:44:51.497Z,292
2017-12-02T12:45:52.897Z,296
2017-12-02T12:46:54.294Z,288
2017-12-02T12:47:56.370Z,304
2017-12-02T12:48:58.628Z,300
2017-12-02T12:50:01.022Z,300
2017-12-02T12:51:03.975Z,296
2017-12-02T12:52:07.179Z,280
2017-12-02T12:53:10.421Z,276
2017-12-02T12:54:12.742Z,264
2017-12-02T12:55:15.208Z,248
2017-12-02T12:56:18.274Z,240
2017-12-02T12:57:21.042Z,236
2017-12-02T12:58:24.314Z,236
2017-12-02T12:59:27.427Z,244
2017-12-02T13:00:30.838Z,248
2017-12-02T13:01:33.427Z,256
2017-12-02T13:02:36.382Z,264
2017-12-02T13:03:40.566Z,276
2017-12-02T13:04:44.047Z,276
2017-12-02T13:05:48.243Z,272
2017-12-02T13:06:51.799Z,276
2017-12-02T13:07:55.131Z,264
2017-12-02T13:08:58.677Z,260
2017-12-02T13:10:01.991Z,260
2017-12-02T13:11:08.332Z,256
2017-12-02T13:12:13.625Z,268
2017-12-02T13:13:18.619Z,272
2017-12-02T13:14:21.758Z,268
2017-12-02T13:15:26.251Z,264
2017-12-02T13:16:30.113Z,264
2017-12-02T13:17:34.084Z,272
2017-12-02T13:18:36.895Z,280
2017-12-02T13:19:39.730Z,284
2017-12-02T13:20:42.885Z,288
2017-12-02T13:21:45.596Z,276
2017-12-02T13:22:47.155Z,268
2017-12-02T13:23:48.812Z,268
2017-12-02T13:24:50.430Z,284
2017-12-02T13:25:52.608Z,292
2017-12-02T13:26:54.793Z,292
2017-12-02T13:27:57.012Z,280
2017-12-02T13:28:59.046Z,276
2017-12-02T13:30:01.106Z,264
2017-12-02T13:31:03.248Z,268
2017-12-02T13:32:05.358Z,260
2017-12-02T13:33:07.528Z,268
2017-12-02T13:34:09.513Z,252
2017-12-02T13:35:11.713Z,244
2017-12-02T13:36:14.109Z,240
2017-12-02T13:37:16.474Z,224
2017-12-02T13:38:18.642Z,220
2017-12-02T13:39:21.744Z,216
2017-12-02T13:40:23.918Z,212
2017-12-02T13:41:26.141Z,200
2017-12-02T13:42:29.222Z,208
2017-12-02T13:43:31.410Z,200
2017-12-02T13:44:34.650Z,200
2017-12-02T13:45:37.219Z,204
2017-12-02T13:46:40.484Z,188
2017-12-02T13:47:42.677Z,180
2017-12-02T13:48:44.905Z,176
2017-12-02T13:49:47.108Z,180
2017-12-02T13:50:49.127Z,184
2017-12-02T13:51:51.335Z,192
2017-12-02T13:52:53.491Z,188
2017-12-02T13:53:55.843Z,180
2017-12-02T13:54:57.938Z,176
2017-12-02T13:56:00.630Z,176
2017-12-02T13:57:02.676Z,180
2017-12-02T13:58:04.973Z,180
2017-12-02T13:59:07.110Z,184
2017-12-02T14:00:09.269Z,188
2017-12-02T14:01:11.269Z,200
2017-12-02T14:02:13.674Z,200
2017-12-02T14:03:15.873Z,196
2017-12-02T14:04:18.093Z,188
2017-12-02T14:05:19.787Z,176
2017-12-02T14:06:21.541Z,172
2017-12-02T14:07:23.140Z,176
2017-12-02T14:08:24.752Z,172
2017-12-02T14:09:26.403Z,176
2017-12-02T14:10:28.226Z,164
2017-12-02T14:11:30.141Z,152
2017-12-02T14:12:31.804Z,148
2017-12-02T14:13:33.601Z,148
2017-12-02T14:14:35.238Z,156
2017-12-02T14:15:36.808Z,156
2017-12-02T14:16:38.707Z,152
2017-12-02T14:17:40.325Z,144
2017-12-02T14:18:42.229Z,132
2017-12-02T14:19:44.195Z,124
2017-12-02T14:20:45.818Z,124
2017-12-02T14:21:47.513Z,120
2017-12-02T14:22:49.206Z,116
2017-12-02T14:23:50.857Z,116
2017-12-02T14:24:52.494Z,112
2017-12-02T14:25:54.097Z,112
2017-12-02T14:26:55.691Z,116
2017-12-02T14:27:57.459Z,108
2017-12-02T14:28:59.056Z,108
2017-12-02T14:30:00.652Z,104
2017-12-02T14:31:02.201Z,96
2017-12-02T14:32:04.033Z,96
2017-12-02T14:33:05.650Z,92
2017-12-02T14:34:07.446Z,92
2017-12-02T14:35:09.327Z,92
2017-12-02T14:36:11.096Z,92
2017-12-02T14:37:12.740Z,92
2017-12-02T14:38:14.506Z,88
2017-12-02T14:39:16.379Z,88
2017-12-02T14:40:18.035Z,84